Time;durP1;ratioP1;P1;durP2;ratioP2;P2;SDS_P1;SDS_P2;PMS_P1;PMS_P2;Temp;Humidity;BMP_temperature;BMP_pressure;BME280_temperature;BME280_humidity;BME280_pressure;Samples;Min_cycle;Max_cycle;Signal;HPM_P1;HPM_P2
2022/05/01 00:00:07;;;;;;;31.20;8.75;;;;;;;3.05;47.85;100591.53;5030431;28;20022;-56
2022/05/01 00:02:33;;;;;;;22.52;7.85;;;;;;;2.91;48.13;100574.41;5029733;28;20559;-57
2022/05/01 00:04:58;;;;;;;25.02;8.30;;;;;;;2.99;48.09;100596.13;5029683;28;20034;-59
2022/05/01 00:07:23;;;;;;;26.33;8.60;;;;;;;2.99;48.45;100593.47;5030228;28;20036;-55
2022/05/01 00:09:49;;;;;;;26.70;9.13;;;;;;;2.99;48.69;100598.78;4996047;28;20144;-54
2022/05/01 00:12:14;;;;;;;25.83;8.32;;;;;;;2.98;48.73;100604.97;5029813;28;20033;-59
2022/05/01 00:14:40;;;;;;;25.40;9.43;;;;;;;2.98;48.39;100609.41;5030032;28;20026;-58
2022/05/01 00:17:05;;;;;;;32.40;10.13;;;;;;;2.75;48.84;100570.56;5029996;28;20477;-59
2022/05/01 00:19:31;;;;;;;26.90;10.45;;;;;;;2.93;48.88;100606.94;5012656;28;20034;-58
2022/05/01 00:21:56;;;;;;;26.73;10.40;;;;;;;2.95;48.53;100604.22;5029940;28;20026;-56
2022/05/01 00:24:22;;;;;;;28.67;11.35;;;;;;;2.75;48.83;100581.16;5029809;28;20398;-57
2022/05/01 00:26:47;;;;;;;36.90;11.45;;;;;;;2.90;48.61;100606.19;5029890;28;20037;-59
2022/05/01 00:29:13;;;;;;;27.63;11.45;;;;;;;2.76;48.92;100586.38;5030248;28;20029;-60
2022/05/01 00:31:39;;;;;;;29.35;11.90;;;;;;;2.91;48.81;100624.66;5029768;28;20331;-57
2022/05/01 00:36:50;;;;;;;26.85;11.10;;;;;;;2.89;49.17;100613.22;5029771;28;20060;-54
2022/05/01 00:39:16;;;;;;;30.02;11.70;;;;;;;2.86;49.45;100611.59;5030274;28;20030;-60
2022/05/01 00:41:43;;;;;;;29.58;11.57;;;;;;;2.86;49.30;100616.00;5030004;28;20487;-55
2022/05/01 00:44:18;;;;;;;26.88;11.25;;;;;;;2.86;49.51;100614.22;5029682;28;20029;-56
2022/05/01 00:46:46;;;;;;;31.92;12.52;;;;;;;2.85;49.66;100614.25;5012459;28;20487;-55
2022/05/01 00:49:15;;;;;;;24.60;11.63;;;;;;;2.69;50.02;100590.16;5030281;28;20029;-58
2022/05/01 00:51:48;;;;;;;28.27;11.80;;;;;;;2.80;49.74;100610.94;5029771;28;20025;-58
2022/05/01 00:54:16;;;;;;;31.10;12.00;;;;;;;2.79;50.11;100615.38;5029845;28;20101;-60
2022/05/01 00:56:46;;;;;;;32.08;12.32;;;;;;;2.76;50.14;100615.44;5029810;28;20030;-57
2022/05/01 00:59:11;;;;;;;23.80;11.15;;;;;;;2.71;50.51;100626.22;5029605;28;20079;-59
2022/05/01 01:01:41;;;;;;;26.80;11.15;;;;;;;2.72;50.39;100620.00;5011729;28;20365;-56
2022/05/01 01:04:06;;;;;;;31.55;11.95;;;;;;;2.69;50.83;100621.88;5029060;28;20525;-59
2022/05/01 01:06:32;;;;;;;28.55;12.25;;;;;;;2.68;50.53;100623.69;5011626;28;20030;-60
2022/05/01 01:08:58;;;;;;;33.17;11.98;;;;;;;2.67;50.72;100615.78;5029610;28;20056;-57
2022/05/01 01:11:23;;;;;;;25.13;10.98;;;;;;;2.49;50.60;100596.16;5028930;28;20061;-58
2022/05/01 01:13:49;;;;;;;25.15;11.38;;;;;;;2.62;50.37;100613.28;5029772;28;20033;-59
2022/05/01 01:16:15;;;;;;;32.80;11.73;;;;;;;2.64;50.39;100614.09;5015364;28;20045;-59
2022/05/01 01:18:41;;;;;;;25.83;11.73;;;;;;;2.65;49.97;100612.34;5015268;28;20389;-59
2022/05/01 01:21:10;;;;;;;35.88;11.43;;;;;;;2.50;50.33;100593.44;5033121;28;20401;-60
2022/05/01 01:23:39;;;;;;;28.88;11.38;;;;;;;2.60;50.34;100617.78;5033173;28;20140;-61
2022/05/01 01:26:05;;;;;;;26.52;11.25;;;;;;;2.63;50.31;100617.66;5032931;28;20034;-61
2022/05/01 01:28:40;;;;;;;28.73;11.48;;;;;;;2.64;50.40;100621.19;5033078;28;20029;-63
2022/05/01 01:33:55;;;;;;;24.92;11.27;;;;;;;2.63;50.20;100617.66;5032993;28;20037;-57
2022/05/01 01:36:22;;;;;;;30.48;12.10;;;;;;;2.57;49.90;100617.88;5015134;28;20087;-56
2022/05/01 01:38:49;;;;;;;27.02;11.63;;;;;;;2.57;50.17;100620.53;5033112;28;20065;-60
2022/05/01 01:41:20;;;;;;;28.55;11.48;;;;;;;2.59;50.46;100621.34;5032958;28;20449;-58
2022/05/01 01:43:45;;;;;;;26.73;11.95;;;;;;;2.54;50.74;100616.22;5032954;28;20091;-58
2022/05/01 01:46:11;;;;;;;23.48;12.15;;;;;;;2.52;50.46;100604.81;5014707;28;20037;-56
2022/05/01 01:48:36;;;;;;;30.00;11.75;;;;;;;2.54;51.08;100610.06;5032607;28;20031;-59
2022/05/01 01:51:04;;;;;;;32.50;12.10;;;;;;;2.54;50.68;100610.06;5032307;28;20394;-56
2022/05/01 01:53:31;;;;;;;25.17;10.85;;;;;;;2.54;50.54;100610.06;5032475;28;20408;-57
2022/05/01 01:55:58;;;;;;;30.13;11.50;;;;;;;2.53;50.21;100618.91;5032639;28;20029;-56
2022/05/01 01:58:25;;;;;;;21.40;10.52;;;;;;;2.52;50.36;100607.47;5032068;28;20064;-59
2022/05/01 02:00:51;;;;;;;28.85;11.40;;;;;;;2.52;50.50;100606.63;5031957;28;20033;-58
2022/05/01 02:03:17;;;;;;;26.33;11.88;;;;;;;2.49;50.43;100612.84;5032738;28;20065;-57
2022/05/01 02:05:43;;;;;;;33.10;12.27;;;;;;;2.56;50.49;100616.16;5032391;28;20033;-58
2022/05/01 02:08:09;;;;;;;33.42;12.10;;;;;;;2.58;50.59;100614.31;5031977;28;20029;-60
2022/05/01 02:10:35;;;;;;;26.90;11.18;;;;;;;2.60;50.68;100617.78;5031719;28;20536;-57
2022/05/01 02:13:02;;;;;;;26.27;11.57;;;;;;;2.63;50.59;100619.47;5014645;28;20029;-58
2022/05/01 02:15:32;;;;;;;30.10;11.82;;;;;;;2.65;50.34;100617.63;5032139;28;20037;-57
2022/05/01 02:17:58;;;;;;;31.20;11.82;;;;;;;2.68;50.21;100623.69;5032033;28;20037;-58
2022/05/01 02:20:25;;;;;;;29.85;11.38;;;;;;;2.71;50.61;100617.41;5031973;28;20487;-58
2022/05/01 02:22:53;;;;;;;31.02;11.32;;;;;;;2.69;50.52;100619.25;5032186;28;20114;-59
2022/05/01 02:25:21;;;;;;;34.13;11.88;;;;;;;2.78;50.56;100618.94;5031841;28;20497;-58
2022/05/01 02:27:47;;;;;;;26.13;11.45;;;;;;;2.83;50.34;100621.41;5030961;28;20048;-56
2022/05/01 02:30:13;;;;;;;24.50;10.85;;;;;;;2.80;50.31;100608.28;5031454;28;20034;-58
2022/05/01 02:32:39;;;;;;;38.35;11.80;;;;;;;2.93;50.42;100628.09;5031799;28;20381;-57
2022/05/01 02:35:10;;;;;;;23.48;10.85;;;;;;;2.84;49.85;100599.31;5031724;28;20033;-53
2022/05/01 02:37:35;;;;;;;20.83;10.57;;;;;;;3.03;50.01;100628.63;5031613;28;20489;-59
2022/05/01 02:40:02;;;;;;;28.80;11.73;;;;;;;3.08;49.90;100634.63;5031330;28;20065;-60
2022/05/01 02:42:29;;;;;;;27.85;11.23;;;;;;;3.14;49.65;100629.09;4997605;28;20471;-58
2022/05/01 02:44:59;;;;;;;25.55;10.60;;;;;;;3.22;49.31;100623.53;4997577;28;20086;-54
2022/05/01 02:47:24;;;;;;;23.83;10.50;;;;;;;2.91;49.06;100561.16;5031199;28;20454;-55
2022/05/01 02:49:50;;;;;;;26.55;10.43;;;;;;;3.32;49.18;100621.41;5031568;28;20033;-57
2022/05/01 02:52:16;;;;;;;23.45;10.23;;;;;;;3.24;48.72;100594.34;5031020;28;20461;-58
2022/05/01 02:54:41;;;;;;;24.38;10.60;;;;;;;3.48;48.61;100619.03;5030986;28;20438;-57
2022/05/01 02:57:06;;;;;;;26.08;10.43;;;;;;;3.55;48.31;100623.16;5030881;28;20033;-56
2022/05/01 02:59:32;;;;;;;28.25;9.95;;;;;;;3.63;48.25;100627.31;5031103;28;20147;-59
2022/05/01 03:01:58;;;;;;;22.58;10.07;;;;;;;3.70;47.74;100623.50;5031191;28;20033;-54
2022/05/01 03:04:24;;;;;;;29.77;10.52;;;;;;;3.73;48.04;100624.22;5030830;28;20029;-60
2022/05/01 03:06:50;;;;;;;26.70;10.35;;;;;;;3.67;47.59;100603.28;5013476;28;20029;-55
2022/05/01 03:09:15;;;;;;;27.00;10.75;;;;;;;3.92;47.50;100617.34;5031055;28;20044;-60
2022/05/01 03:11:41;;;;;;;22.67;9.52;;;;;;;3.99;47.16;100618.81;5012932;28;20112;-56
2022/05/01 03:14:09;;;;;;;26.80;9.70;;;;;;;3.93;46.70;100590.78;5030607;28;20030;-52
2022/05/01 03:16:35;;;;;;;22.10;9.75;;;;;;;4.25;46.73;100627.47;5031076;28;20029;-56
2022/05/01 03:24:29;;;;;;;20.95;9.60;;;;;;;4.67;44.98;100626.59;5029003;28;20068;-58
2022/05/01 03:26:54;;;;;;;22.67;9.85;;;;;;;4.83;44.27;100628.59;5030662;28;20400;-60
2022/05/01 03:29:20;;;;;;;29.42;9.57;;;;;;;4.97;44.08;100630.66;5030608;28;20037;-58
2022/05/01 03:31:48;;;;;;;29.33;10.20;;;;;;;4.94;43.79;100602.44;4996831;28;20115;-58
2022/05/01 03:34:14;;;;;;;26.75;10.13;;;;;;;5.19;44.00;100617.25;5030612;28;20527;-60
2022/05/01 03:36:40;;;;;;;17.83;9.43;;;;;;;5.42;42.98;100623.31;5012477;28;20162;-55
2022/05/01 03:39:05;;;;;;;29.92;10.32;;;;;;;5.63;42.57;100625.91;5030143;28;20136;-58
2022/05/01 03:41:32;;;;;;;22.77;9.63;;;;;;;5.87;41.62;100582.22;5030712;28;20068;-59
2022/05/01 03:43:58;;;;;;;23.08;9.48;;;;;;;7.47;38.33;100608.63;5012642;28;20036;-60
2022/05/01 03:46:24;;;;;;;23.17;8.52;;;;;;;9.50;34.32;100624.38;5030397;28;20108;-59
2022/05/01 03:48:50;;;;;;;17.85;7.57;;;;;;;11.35;31.01;100620.16;5030800;28;20112;-61
2022/05/01 03:51:16;;;;;;;24.35;7.78;;;;;;;13.11;28.03;100621.47;5030166;28;20284;-59
2022/05/01 03:53:42;;;;;;;19.42;7.88;;;;;;;14.58;25.35;100615.94;5030276;28;20323;-60
2022/05/01 03:56:08;;;;;;;23.45;8.35;;;;;;;15.78;23.76;100614.56;5030080;28;20361;-60
2022/05/01 03:58:34;;;;;;;15.05;6.85;;;;;;;17.02;22.04;100618.59;5030230;28;20032;-60
2022/05/01 04:00:59;;;;;;;13.57;6.60;;;;;;;18.13;20.21;100617.78;5030372;28;20025;-61
2022/05/01 04:03:25;;;;;;;14.70;7.03;;;;;;;19.17;18.79;100619.97;5030464;28;20029;-61
2022/05/01 04:05:51;;;;;;;15.70;7.75;;;;;;;19.89;18.14;100594.28;5029938;28;20033;-60
2022/05/01 04:08:17;;;;;;;11.77;6.15;;;;;;;20.94;16.89;100615.47;5030376;28;20029;-61
2022/05/01 04:10:43;;;;;;;12.73;6.28;;;;;;;21.69;16.09;100617.09;5030447;28;20063;-61
2022/05/01 04:13:10;;;;;;;10.95;6.07;;;;;;;22.17;15.34;100589.75;5029889;28;20037;-61
2022/05/01 04:15:36;;;;;;;14.90;6.15;;;;;;;22.92;14.80;100611.81;5029891;28;20029;-61
2022/05/01 04:18:03;;;;;;;9.65;6.03;;;;;;;23.63;14.21;100611.38;5030245;28;20493;-60
2022/05/01 04:20:29;;;;;;;10.25;5.45;;;;;;;24.33;13.63;100612.78;5030368;28;20104;-61
2022/05/01 04:22:55;;;;;;;9.10;5.78;;;;;;;24.97;13.00;100610.22;5012725;28;20532;-61
2022/05/01 04:25:26;;;;;;;9.90;5.78;;;;;;;25.55;12.43;100609.91;5011941;28;20048;-60
2022/05/01 04:27:56;;;;;;;9.82;4.97;;;;;;;25.97;12.03;100618.09;5012164;28;20029;-61
2022/05/01 04:30:22;;;;;;;6.88;4.60;;;;;;;26.44;10.94;100609.13;5030241;28;20033;-63
2022/05/01 04:32:59;;;;;;;9.25;4.40;;;;;;;27.32;11.93;100616.25;5029676;28;20174;-63
2022/05/01 04:35:28;;;;;;;8.00;4.38;;;;;;;27.68;10.47;100613.19;5029975;28;20029;-63
2022/05/01 04:38:01;;;;;;;7.07;4.28;;;;;;;28.26;10.03;100609.50;5030246;28;20068;-62
2022/05/01 04:40:31;;;;;;;7.78;4.07;;;;;;;28.47;9.68;100611.06;5029991;28;20444;-61
2022/05/01 04:43:07;;;;;;;7.70;4.07;;;;;;;29.00;9.81;100616.31;5029881;28;20025;-62
2022/05/01 04:45:34;;;;;;;7.38;4.05;;;;;;;29.19;9.11;100612.53;5043250;28;20037;-62
2022/05/01 04:48:01;;;;;;;7.20;4.20;;;;;;;29.62;8.81;100613.53;5030905;28;20033;-62
2022/05/01 04:50:27;;;;;;;6.70;4.22;;;;;;;30.04;8.61;100589.88;5032084;28;20033;-62
2022/05/01 04:52:53;;;;;;;6.25;3.75;;;;;;;30.48;8.21;100604.25;5033433;28;20042;-62
2022/05/01 04:55:19;;;;;;;6.90;3.67;;;;;;;30.89;7.68;100598.91;5033302;28;20034;-61
2022/05/01 04:57:44;;;;;;;6.10;3.63;;;;;;;31.49;7.50;100593.31;5033749;28;20038;-61
2022/05/01 05:00:11;;;;;;;6.10;3.83;;;;;;;31.64;7.05;100601.09;5033449;28;20101;-60
2022/05/01 05:02:39;;;;;;;5.78;3.53;;;;;;;31.66;7.30;100604.44;5015799;28;20361;-72
2022/05/01 05:05:06;;;;;;;5.60;3.33;;;;;;;31.71;7.20;100607.34;5036217;28;20025;-63
2022/05/01 05:07:33;;;;;;;7.07;2.92;;;;;;;31.67;6.78;100589.53;5043346;28;20076;-63
2022/05/01 05:09:59;;;;;;;5.57;3.22;;;;;;;32.04;6.94;100596.63;5041591;28;20461;-63
2022/05/01 05:12:25;;;;;;;6.97;3.20;;;;;;;32.41;6.55;100600.88;5042625;28;20048;-64
2022/05/01 05:14:54;;;;;;;4.93;2.92;;;;;;;32.99;6.31;100595.16;5042936;28;20037;-63
2022/05/01 05:17:21;;;;;;;5.32;2.42;;;;;;;33.68;5.77;100601.34;5040541;28;20848;-62
2022/05/01 05:19:47;;;;;;;3.97;2.45;;;;;;;34.30;5.45;100594.50;5042911;28;20029;-64
2022/05/01 05:22:13;;;;;;;7.43;2.70;;;;;;;34.74;5.43;100587.94;5040924;28;20086;-63
2022/05/01 05:24:39;;;;;;;3.67;2.50;;;;;;;35.09;4.99;100598.72;5042753;28;20041;-62
2022/05/01 05:27:05;;;;;;;2.58;2.30;;;;;;;34.99;5.21;100589.19;5042149;28;20386;-62
2022/05/01 05:29:30;;;;;;;4.38;2.15;;;;;;;35.13;5.16;100585.94;5041670;28;20044;-62
2022/05/01 05:31:56;;;;;;;3.05;2.67;;;;;;;35.35;4.76;100581.03;5043367;28;20484;-63
2022/05/01 05:34:21;;;;;;;3.45;2.28;;;;;;;35.32;4.97;100559.31;5041548;28;20064;-63
2022/05/01 05:36:47;;;;;;;4.65;2.20;;;;;;;35.61;4.54;100569.19;5041866;28;20176;-62
2022/05/01 05:39:13;;;;;;;7.22;2.38;;;;;;;36.16;4.48;100588.25;5042552;28;20587;-63
2022/05/01 05:41:38;;;;;;;3.72;2.50;;;;;;;36.49;4.08;100583.22;5040740;28;20033;-63
2022/05/01 05:44:04;;;;;;;3.47;1.88;;;;;;;36.99;3.80;100586.22;5042125;28;20025;-63
2022/05/01 05:46:30;;;;;;;3.03;2.17;;;;;;;37.55;3.42;100586.34;5025177;28;20040;-62
2022/05/01 05:48:57;;;;;;;4.00;2.20;;;;;;;38.11;3.33;100587.97;5035467;28;20030;-65
2022/05/01 05:51:22;;;;;;;2.42;2.22;;;;;;;38.27;3.49;100579.44;5014938;28;20040;-64
2022/05/01 05:53:51;;;;;;;3.17;2.17;;;;;;;39.04;3.62;100570.31;5033055;28;20104;-63
2022/05/01 05:56:17;;;;;;;2.58;2.20;;;;;;;38.85;3.07;100572.22;5033039;28;20029;-62
2022/05/01 05:58:43;;;;;;;3.05;2.30;;;;;;;39.18;2.92;100556.41;5032485;28;20188;-64
2022/05/01 06:01:10;;;;;;;2.85;2.00;;;;;;;39.74;2.82;100567.19;5031780;28;20025;-65
2022/05/01 06:03:36;;;;;;;2.70;1.92;;;;;;;39.51;2.79;100569.75;5032574;28;20044;-64
2022/05/01 06:06:02;;;;;;;2.10;1.83;;;;;;;39.74;2.65;100573.63;5032706;28;20036;-60
2022/05/01 06:08:28;;;;;;;2.03;1.80;;;;;;;39.71;2.71;100542.56;5015281;28;20030;-64
2022/05/01 06:10:53;;;;;;;2.47;1.98;;;;;;;40.05;2.26;100558.34;5019675;28;20040;-65
2022/05/01 06:13:18;;;;;;;3.67;1.88;;;;;;;39.85;2.35;100556.66;5014236;28;20025;-65
2022/05/01 06:15:44;;;;;;;2.40;2.20;;;;;;;39.50;2.62;100556.88;5045790;28;20028;-64
2022/05/01 06:18:10;;;;;;;3.28;2.33;;;;;;;40.23;2.46;100564.19;5041493;28;20095;-65
2022/05/01 06:20:36;;;;;;;2.20;2.00;;;;;;;40.70;2.41;100555.81;5007575;28;20040;-65
2022/05/01 06:23:02;;;;;;;3.15;2.17;;;;;;;41.33;1.94;100559.88;5032121;28;20092;-60
2022/05/01 06:25:28;;;;;;;2.42;1.98;;;;;;;41.70;1.92;100545.03;5032611;28;20081;-63
2022/05/01 06:27:54;;;;;;;4.97;2.30;;;;;;;42.19;1.81;100545.25;5032184;28;20045;-64
2022/05/01 06:30:19;;;;;;;2.97;2.20;;;;;;;42.64;1.87;100560.44;5032214;28;20099;-64
2022/05/01 06:32:45;;;;;;;3.55;2.28;;;;;;;42.64;1.39;100540.72;5044746;28;20032;-64
2022/05/01 06:35:11;;;;;;;3.20;2.30;;;;;;;42.11;1.56;100552.47;5037214;28;20037;-63
2022/05/01 06:37:38;;;;;;;4.05;2.25;;;;;;;41.94;1.55;100555.13;5042662;28;20100;-63
2022/05/01 06:40:05;;;;;;;3.42;2.00;;;;;;;41.85;1.88;100553.09;5040701;28;20039;-63
2022/05/01 06:42:32;;;;;;;2.20;1.85;;;;;;;42.14;1.38;100554.66;5023781;28;20102;-64
2022/05/01 06:44:58;;;;;;;4.20;1.98;;;;;;;42.21;1.56;100553.38;5041254;28;20491;-60
2022/05/01 06:47:24;;;;;;;2.03;1.80;;;;;;;41.75;1.60;100528.88;5039616;28;20037;-61
2022/05/01 06:49:49;;;;;;;1.75;1.58;;;;;;;42.31;1.50;100547.47;5039886;28;20029;-63
2022/05/01 06:52:22;;;;;;;2.28;1.40;;;;;;;43.18;1.08;100547.03;5023220;28;20045;-62
2022/05/01 06:54:47;;;;;;;2.00;1.80;;;;;;;43.17;1.41;100536.13;5040743;28;20064;-62
2022/05/01 06:57:13;;;;;;;3.53;1.58;;;;;;;43.39;1.10;100540.81;5038527;28;20049;-60
2022/05/01 06:59:38;;;;;;;1.65;1.55;;;;;;;43.33;1.49;100528.03;5041481;28;20778;-59
2022/05/01 07:02:04;;;;;;;2.45;1.70;;;;;;;43.70;0.99;100525.75;5039750;28;20017;-60
2022/05/01 07:04:29;;;;;;;2.85;1.38;;;;;;;43.98;0.59;100522.56;5040901;28;20061;-61
2022/05/01 07:06:55;;;;;;;1.63;1.50;;;;;;;44.37;0.97;100533.94;5038865;28;20380;-60
2022/05/01 07:09:20;;;;;;;1.30;1.20;;;;;;;44.99;0.76;100526.06;5040802;28;20452;-64
2022/05/01 07:11:46;;;;;;;1.45;1.35;;;;;;;44.83;0.42;100516.50;5037948;28;20472;-62
2022/05/01 07:14:11;;;;;;;2.65;1.30;;;;;;;44.25;0.79;100508.44;5040422;28;20935;-61
2022/05/01 07:16:37;;;;;;;1.67;1.55;;;;;;;43.44;0.88;100512.47;5038109;28;20483;-63
2022/05/01 07:19:02;;;;;;;4.88;1.38;;;;;;;43.92;0.64;100506.16;5039504;28;20033;-62
2022/05/01 07:21:28;;;;;;;2.10;1.27;;;;;;;42.05;1.38;100505.97;5021699;28;20025;-61
2022/05/01 07:23:54;;;;;;;2.58;1.20;;;;;;;41.14;1.84;100500.16;5040646;28;20049;-63
2022/05/01 07:26:20;;;;;;;1.88;1.35;;;;;;;41.43;1.74;100501.78;5038763;28;20384;-60
2022/05/01 07:28:46;;;;;;;1.33;0.95;;;;;;;42.96;0.98;100505.75;5039256;28;20546;-63
2022/05/01 07:31:11;;;;;;;3.50;1.35;;;;;;;44.07;0.86;100508.44;5040483;28;20033;-60
2022/05/01 07:33:37;;;;;;;1.70;1.25;;;;;;;44.65;0.52;100508.13;5038679;28;20037;-63
2022/05/01 07:36:03;;;;;;;3.70;1.55;;;;;;;45.21;0.29;100515.63;5007290;28;20557;-63
2022/05/01 07:38:28;;;;;;;1.85;1.40;;;;;;;43.85;0.67;100489.75;5041392;28;20112;-60
2022/05/01 07:40:54;;;;;;;1.50;1.20;;;;;;;41.99;1.54;100502.41;5038402;28;20025;-60
2022/05/01 07:43:19;;;;;;;1.85;1.27;;;;;;;38.23;2.53;100480.50;5040249;28;20025;-61
2022/05/01 07:45:45;;;;;;;1.60;1.50;;;;;;;35.89;3.81;100498.19;5039770;28;20032;-61
2022/05/01 07:48:10;;;;;;;2.35;1.70;;;;;;;36.95;2.97;100495.84;5038633;28;20123;-61
2022/05/01 07:50:36;;;;;;;1.60;1.50;;;;;;;38.27;2.92;100479.63;5040510;28;20021;-61
2022/05/01 07:53:01;;;;;;;1.70;1.60;;;;;;;37.48;3.14;100491.66;5037890;28;20036;-59
2022/05/01 07:55:27;;;;;;;2.40;1.60;;;;;;;35.77;3.79;100487.31;5041178;28;20048;-60
2022/05/01 07:57:53;;;;;;;2.13;1.77;;;;;;;36.07;3.83;100476.47;5049682;28;20300;-60
2022/05/01 08:00:18;;;;;;;3.97;1.60;;;;;;;35.57;4.17;100488.13;5050463;28;20112;-59
2022/05/01 08:05:29;;;;;;;2.13;1.67;;;;;;;32.36;5.26;100479.75;5050272;28;20035;-60
2022/05/01 08:07:57;;;;;;;2.58;1.60;;;;;;;32.61;5.37;100479.25;5048641;28;20353;-60
2022/05/01 08:10:22;;;;;;;2.80;1.65;;;;;;;30.26;6.67;100476.09;5050438;28;20029;-59
2022/05/01 08:12:48;;;;;;;2.85;1.60;;;;;;;27.74;8.09;100478.34;5050091;28;20098;-59
2022/05/01 08:15:18;;;;;;;2.38;1.70;;;;;;;25.67;9.11;100481.28;5049980;28;20033;-58
2022/05/01 08:17:47;;;;;;;4.22;1.65;;;;;;;23.88;10.63;100476.19;5050044;28;20033;-55
2022/05/01 08:23:05;;;;;;;6.10;2.70;;;;;;;22.08;11.34;100482.59;5050237;28;20060;-61
2022/05/01 08:25:32;;;;;;;3.55;2.20;;;;;;;20.90;12.96;100467.13;5054260;28;20377;-57
2022/05/01 08:27:57;;;;;;;3.22;2.28;;;;;;;20.14;13.63;100447.59;5054565;28;20142;-59
2022/05/01 08:30:22;;;;;;;2.00;1.70;;;;;;;19.55;14.06;100470.25;5054275;28;20540;-61
2022/05/01 08:32:48;;;;;;;2.67;1.80;;;;;;;19.16;14.66;100449.97;5053770;28;20119;-59
2022/05/01 08:35:14;;;;;;;1.98;1.70;;;;;;;18.90;14.53;100456.31;5054100;28;20098;-59
2022/05/01 08:37:40;;;;;;;2.63;1.90;;;;;;;18.67;14.92;100456.00;5053944;28;20041;-57
2022/05/01 08:40:07;;;;;;;2.65;1.70;;;;;;;18.28;15.04;100454.59;5053697;28;20048;-62
2022/05/01 08:42:35;;;;;;;2.17;1.45;;;;;;;17.68;15.33;100456.13;5054447;28;20456;-55
2022/05/01 08:45:02;;;;;;;3.10;1.73;;;;;;;17.36;15.59;100437.56;5054141;28;20069;-59
2022/05/01 08:47:40;;;;;;;3.83;1.77;;;;;;;17.25;15.82;100418.81;5036230;28;20044;-52
2022/05/01 08:50:09;;;;;;;3.28;2.05;;;;;;;17.34;16.24;100444.94;5054312;28;20033;-58
2022/05/01 08:52:37;;;;;;;3.17;1.55;;;;;;;17.22;15.90;100446.19;5035864;28;20029;-55
2022/05/01 08:55:04;;;;;;;2.25;1.70;;;;;;;17.07;15.83;100432.34;5054061;28;20486;-60
2022/05/01 08:57:33;;;;;;;2.38;1.60;;;;;;;16.97;16.25;100413.41;5053698;28;20024;-55
2022/05/01 08:59:58;;;;;;;4.47;1.92;;;;;;;17.17;16.25;100434.97;5053731;28;20452;-59
2022/05/01 09:02:25;;;;;;;3.38;2.03;;;;;;;17.26;16.38;100425.09;5035813;28;20033;-56
2022/05/01 09:04:50;;;;;;;2.72;1.98;;;;;;;17.32;16.18;100422.59;5035593;28;20096;-56
2022/05/01 09:07:16;;;;;;;5.57;2.20;;;;;;;17.16;15.83;100411.63;5053475;28;20035;-58
2022/05/01 09:09:41;;;;;;;2.85;2.20;;;;;;;17.06;16.20;100415.22;5053685;28;20025;-59
2022/05/01 09:14:51;;;;;;;3.25;2.03;;;;;;;17.33;16.33;100415.34;5053397;28;20068;-57
2022/05/01 09:17:24;;;;;;;4.82;1.92;;;;;;;17.29;16.41;100414.78;5053296;28;20061;-60
2022/05/01 09:19:53;;;;;;;3.55;2.00;;;;;;;17.03;16.62;100410.13;5053435;28;20104;-58
2022/05/01 09:22:20;;;;;;;4.30;2.45;;;;;;;16.61;17.16;100419.56;5053110;28;20350;-59
2022/05/01 09:24:52;;;;;;;6.35;1.98;;;;;;;16.40;16.98;100373.88;5052896;28;20040;-56
2022/05/01 09:27:25;;;;;;;5.15;1.95;;;;;;;16.83;16.56;100395.84;5053440;28;20044;-60
2022/05/01 09:30:16;;;;;;;2.53;2.03;;;;;;;16.96;16.69;100402.72;5053181;28;20090;-60
2022/05/01 09:32:42;;;;;;;3.10;2.13;;;;;;;16.69;16.98;100362.06;5053260;28;20032;-58
2022/05/01 09:35:29;;;;;;;3.53;2.03;;;;;;;17.15;16.30;100385.59;5052508;28;20111;-58
2022/05/01 09:38:17;;;;;;;5.32;2.53;;;;;;;17.20;16.44;100384.09;5053153;28;20348;-54
2022/05/01 09:40:49;;;;;;;4.20;2.10;;;;;;;16.93;17.30;100383.09;5053138;28;20472;-57
2022/05/01 09:43:38;;;;;;;6.25;2.28;;;;;;;17.10;16.53;100391.44;5052838;28;20025;-56
2022/05/01 09:46:18;;;;;;;5.28;2.38;;;;;;;17.18;16.20;100385.28;5051948;28;20385;-59
2022/05/01 09:49:00;;;;;;;4.68;2.10;;;;;;;17.34;15.94;100382.72;5052247;28;20111;-58
2022/05/01 09:51:28;;;;;;;3.28;2.47;;;;;;;17.26;16.05;100379.94;5052240;28;20246;-59
2022/05/01 09:53:54;;;;;;;4.53;2.30;;;;;;;17.20;16.60;100375.16;5052706;28;20131;-58
2022/05/01 09:56:19;;;;;;;5.00;2.20;;;;;;;17.15;16.62;100353.13;5052833;28;20031;-56
2022/05/01 09:58:45;;;;;;;2.95;2.05;;;;;;;17.35;16.12;100362.75;5052873;28;20414;-56
2022/05/01 10:01:13;;;;;;;3.63;2.30;;;;;;;17.22;15.74;100360.44;5052389;28;20029;-60
2022/05/01 10:03:43;;;;;;;3.47;2.25;;;;;;;17.05;16.05;100370.25;5052947;28;20111;-58
2022/05/01 10:06:11;;;;;;;3.85;2.42;;;;;;;17.24;16.29;100367.53;5052778;28;20025;-55
2022/05/01 10:08:39;;;;;;;2.90;2.28;;;;;;;17.56;15.91;100356.16;5034769;28;20116;-58
2022/05/01 10:11:05;;;;;;;3.25;2.03;;;;;;;17.96;15.76;100366.63;5052130;28;20025;-56
2022/05/01 10:13:32;;;;;;;4.32;2.55;;;;;;;18.21;15.52;100348.72;5052377;28;20911;-58
2022/05/01 10:15:59;;;;;;;3.45;2.40;;;;;;;18.22;14.90;100350.41;5052392;28;20112;-58
2022/05/01 10:18:25;;;;;;;4.10;2.20;;;;;;;18.06;15.39;100345.72;5052233;28;20454;-57
2022/05/01 10:20:51;;;;;;;3.10;2.17;;;;;;;17.83;15.97;100348.91;5051991;28;20549;-58
2022/05/01 10:23:17;;;;;;;3.72;2.60;;;;;;;17.57;16.16;100340.78;5051428;28;20061;-57
2022/05/01 10:26:00;;;;;;;4.07;2.60;;;;;;;17.63;16.22;100345.56;5052058;28;20110;-59
2022/05/01 10:29:21;;;;;;;4.13;2.28;;;;;;;17.79;15.80;100347.53;5051769;28;20045;-59
2022/05/01 10:34:51;;;;;;;3.83;2.63;;;;;;;17.56;16.11;100333.69;4989408;28;20049;-56
2022/05/01 10:37:37;;;;;;;4.63;2.60;;;;;;;17.47;16.24;100340.88;5033967;28;20373;-58
2022/05/01 10:40:03;;;;;;;4.63;2.30;;;;;;;17.20;16.15;100326.44;5051385;28;20115;-56
2022/05/01 10:42:42;;;;;;;3.78;2.33;;;;;;;17.32;16.00;100336.00;5051469;28;20072;-52
2022/05/01 10:45:23;;;;;;;4.80;2.47;;;;;;;17.32;15.97;100332.47;5033881;28;20029;-59
2022/05/01 10:47:52;;;;;;;3.88;2.30;;;;;;;17.15;16.06;100339.59;5050661;28;20029;-61
2022/05/01 10:50:22;;;;;;;2.95;2.30;;;;;;;17.21;16.33;100328.13;5051733;28;20036;-60
2022/05/01 10:53:09;;;;;;;3.95;2.38;;;;;;;17.43;16.08;100323.25;5034099;28;20037;-56
2022/05/01 10:55:51;;;;;;;3.20;2.00;;;;;;;17.51;16.28;100315.19;5051708;28;20029;-54
2022/05/01 10:58:28;;;;;;;4.05;2.40;;;;;;;17.58;15.74;100310.84;5034143;28;20131;-59
2022/05/01 11:00:55;;;;;;;5.65;2.40;;;;;;;17.64;16.22;100315.63;5033770;28;20383;-57
2022/05/01 11:03:28;;;;;;;6.65;2.05;;;;;;;17.63;15.67;100307.66;5051867;28;20377;-59
2022/05/01 11:06:08;;;;;;;3.97;1.80;;;;;;;17.38;15.62;100310.19;5033658;28;20400;-56
2022/05/01 11:08:36;;;;;;;2.47;2.13;;;;;;;16.90;16.09;100301.44;5051150;28;20060;-56
2022/05/01 11:11:05;;;;;;;3.33;1.90;;;;;;;16.85;16.39;100295.63;5051075;28;20044;-58
2022/05/01 11:13:32;;;;;;;3.67;2.67;;;;;;;16.97;16.53;100296.25;5051407;28;20033;-55
2022/05/01 11:15:58;;;;;;;3.75;2.20;;;;;;;17.02;16.07;100288.56;5051178;28;20025;-58
2022/05/01 11:18:34;;;;;;;5.00;2.30;;;;;;;16.99;16.12;100288.84;5051192;28;20036;-60
2022/05/01 11:21:21;;;;;;;3.22;2.45;;;;;;;16.73;16.21;100290.44;5051254;28;20032;-56
2022/05/01 11:23:57;;;;;;;4.18;2.08;;;;;;;16.43;16.46;100289.78;5050948;28;20051;-56
2022/05/01 11:26:23;;;;;;;3.25;2.40;;;;;;;16.22;17.18;100279.22;5049604;28;20437;-55
2022/05/01 11:28:54;;;;;;;4.32;2.50;;;;;;;16.41;16.94;100286.38;5050887;28;20036;-57
2022/05/01 11:31:38;;;;;;;3.58;2.42;;;;;;;16.76;16.59;100287.44;5050876;28;20032;-57
2022/05/01 11:34:16;;;;;;;4.70;2.90;;;;;;;16.90;16.48;100275.22;5033055;28;20474;-58
2022/05/01 11:37:03;;;;;;;3.30;2.50;;;;;;;16.96;16.62;100273.78;5050719;28;20499;-58
2022/05/01 11:39:49;;;;;;;7.00;2.60;;;;;;;16.99;16.51;100276.19;5050779;28;20025;-58
2022/05/01 11:42:27;;;;;;;11.82;2.85;;;;;;;16.90;15.96;100272.53;5051275;28;20037;-59
2022/05/01 11:44:58;;;;;;;3.00;2.50;;;;;;;16.57;15.69;100261.38;5032985;28;20037;-60
2022/05/01 11:47:25;;;;;;;4.20;2.30;;;;;;;16.32;15.69;100265.66;5050543;28;20425;-58
2022/05/01 11:49:50;;;;;;;2.67;2.28;;;;;;;16.03;16.00;100259.38;5050628;28;20518;-57